Time;durP1;ratioP1;P1;durP2;ratioP2;P2;SDS_P1;SDS_P2;PMS_P1;PMS_P2;Temp;Humidity;BMP_temperature;BMP_pressure;BME280_temperature;BME280_humidity;BME280_pressure;Samples;Min_cycle;Max_cycle;Signal;HPM_P1;HPM_P2
2021/12/01 00:02:11;;;;;;;51.20;47.20;;;3.90;99.90;;;;;;5086309;28;20223;-75
2021/12/01 00:05:00;;;;;;;51.87;47.87;;;3.90;99.90;;;;;;5083652;28;20225;-74
2021/12/01 00:07:50;;;;;;;53.73;49.57;;;3.90;99.90;;;;;;5082257;28;20220;-73
2021/12/01 00:10:39;;;;;;;55.10;50.77;;;3.90;99.90;;;;;;5080593;28;20216;-74
2021/12/01 00:13:32;;;;;;;53.53;49.20;;;3.80;99.90;;;;;;5082189;28;20244;-72
2021/12/01 00:16:22;;;;;;;52.90;48.57;;;3.80;99.90;;;;;;5082733;28;20274;-72
2021/12/01 00:19:11;;;;;;;53.30;49.00;;;3.80;99.90;;;;;;5083802;28;20232;-72
2021/12/01 00:22:00;;;;;;;54.13;49.90;;;3.70;99.90;;;;;;5084973;28;20220;-72
2021/12/01 00:24:48;;;;;;;51.17;46.97;;;3.80;99.90;;;;;;5082878;28;20583;-73
2021/12/01 00:27:37;;;;;;;51.27;47.47;;;3.80;99.90;;;;;;5083710;28;20224;-74
2021/12/01 00:30:26;;;;;;;51.50;47.57;;;3.80;99.90;;;;;;5080190;28;20225;-72
2021/12/01 00:33:22;;;;;;;52.47;48.37;;;3.70;99.90;;;;;;5082336;28;20232;-73
2021/12/01 00:36:14;;;;;;;51.37;47.37;;;3.60;99.90;;;;;;5079269;28;20690;-73
2021/12/01 00:39:02;;;;;;;52.93;48.80;;;3.70;99.90;;;;;;5081464;28;20233;-74
2021/12/01 00:41:52;;;;;;;52.40;48.50;;;3.70;99.90;;;;;;5081457;28;20212;-74
2021/12/01 00:44:47;;;;;;;51.87;48.20;;;3.60;99.90;;;;;;5081779;28;20549;-74
2021/12/01 00:47:43;;;;;;;50.03;46.23;;;3.70;99.90;;;;;;5085225;28;20241;-73
2021/12/01 00:50:35;;;;;;;50.53;46.93;;;3.80;99.90;;;;;;5081022;28;20229;-74
2021/12/01 00:53:25;;;;;;;50.97;47.17;;;3.70;99.90;;;;;;5082555;28;20274;-73
2021/12/01 00:56:13;;;;;;;50.97;47.27;;;3.70;99.90;;;;;;5076696;28;21037;-74
2021/12/01 00:59:02;;;;;;;50.33;46.73;;;3.60;99.90;;;;;;5076335;28;20224;-74
2021/12/01 01:01:52;;;;;;;51.23;47.47;;;3.60;99.90;;;;;;5082103;28;20234;-73
2021/12/01 01:04:41;;;;;;;50.03;46.33;;;3.60;99.90;;;;;;5082260;28;20887;-74
2021/12/01 01:07:36;;;;;;;48.63;45.13;;;3.60;99.90;;;;;;5084418;28;20270;-74
2021/12/01 01:10:35;;;;;;;49.30;45.70;;;3.60;99.90;;;;;;5081403;28;20233;-75
2021/12/01 01:16:30;;;;;;;48.73;45.17;;;3.60;99.90;;;;;;5080634;28;20329;-74
2021/12/01 01:19:20;;;;;;;49.93;46.37;;;3.70;99.90;;;;;;5084692;28;20220;-74
2021/12/01 01:22:10;;;;;;;50.07;46.40;;;3.70;99.90;;;;;;5077218;28;20236;-73
2021/12/01 01:25:00;;;;;;;51.50;47.70;;;3.70;99.90;;;;;;5080167;28;20216;-73
2021/12/01 01:27:48;;;;;;;51.93;47.93;;;3.70;99.90;;;;;;5081889;28;20226;-73
2021/12/01 01:30:37;;;;;;;51.03;47.23;;;3.70;99.90;;;;;;5080518;28;20230;-74
2021/12/01 01:33:26;;;;;;;52.67;48.83;;;3.60;99.90;;;;;;5082698;28;20638;-72
2021/12/01 01:36:15;;;;;;;50.50;46.70;;;3.60;99.90;;;;;;5082469;27;20516;-74
2021/12/01 01:39:05;;;;;;;50.17;46.47;;;3.70;99.90;;;;;;5073328;28;20305;-73
2021/12/01 01:41:55;;;;;;;49.00;45.33;;;3.70;99.90;;;;;;5079744;28;20217;-73
2021/12/01 01:44:44;;;;;;;49.40;45.77;;;3.70;99.90;;;;;;5085081;28;20232;-72
2021/12/01 01:47:33;;;;;;;51.70;47.90;;;3.60;99.90;;;;;;5082229;28;20599;-72
2021/12/01 01:50:34;;;;;;;51.77;47.97;;;3.60;99.90;;;;;;5082310;28;20562;-72
2021/12/01 01:53:25;;;;;;;52.57;48.67;;;3.60;99.90;;;;;;5079460;28;20749;-72
2021/12/01 01:56:14;;;;;;;51.97;48.07;;;3.60;99.90;;;;;;5080373;28;20222;-72
2021/12/01 01:59:04;;;;;;;55.03;50.77;;;3.60;99.90;;;;;;5082905;28;20593;-72
2021/12/01 02:01:56;;;;;;;51.90;48.17;;;3.60;99.90;;;;;;5079600;28;20357;-71
2021/12/01 02:04:45;;;;;;;50.80;47.00;;;3.70;99.90;;;;;;5109395;27;20629;-71
2021/12/01 02:07:34;;;;;;;50.93;47.13;;;3.50;99.90;;;;;;5083601;28;20641;-71
2021/12/01 02:10:23;;;;;;;52.93;48.87;;;3.50;99.90;;;;;;5082292;28;20221;-72
2021/12/01 02:13:12;;;;;;;52.87;48.97;;;3.50;99.90;;;;;;5077793;28;20303;-72
2021/12/01 02:16:03;;;;;;;52.57;48.53;;;3.50;99.90;;;;;;5078923;28;20233;-73
2021/12/01 02:18:56;;;;;;;53.30;49.30;;;3.50;99.90;;;;;;5077468;28;20359;-73
2021/12/01 02:21:47;;;;;;;52.07;48.13;;;3.40;99.90;;;;;;5076087;28;20720;-75
2021/12/01 02:24:35;;;;;;;52.80;48.87;;;3.40;99.90;;;;;;5079561;28;20215;-73
2021/12/01 02:27:24;;;;;;;49.77;46.13;;;3.40;99.90;;;;;;5077834;28;20219;-73
2021/12/01 02:30:13;;;;;;;54.00;49.93;;;3.30;99.90;;;;;;5081493;28;20222;-74
2021/12/01 02:33:02;;;;;;;51.67;47.80;;;3.40;99.90;;;;;;5082493;28;20741;-73
2021/12/01 02:35:50;;;;;;;54.57;50.57;;;3.30;99.90;;;;;;5077458;28;20289;-73
2021/12/01 02:38:43;;;;;;;52.90;48.80;;;3.30;99.90;;;;;;5074239;28;20802;-73
2021/12/01 02:41:33;;;;;;;52.50;48.30;;;3.40;99.90;;;;;;5074543;28;20264;-74
2021/12/01 02:44:22;;;;;;;53.60;49.50;;;3.30;99.90;;;;;;5083996;28;20212;-75
2021/12/01 02:47:12;;;;;;;52.87;48.87;;;3.40;99.90;;;;;;5080804;28;20220;-72
2021/12/01 02:50:00;;;;;;;52.53;48.43;;;3.40;99.90;;;;;;5080138;28;20216;-71
2021/12/01 02:52:50;;;;;;;52.40;48.47;;;3.40;99.90;;;;;;5082955;28;20229;-72
2021/12/01 02:55:48;;;;;;;54.07;50.17;;;3.40;99.90;;;;;;5079892;28;21553;-73
2021/12/01 02:58:40;;;;;;;53.73;49.63;;;3.40;99.90;;;;;;5090387;28;20709;-75
2021/12/01 03:01:29;;;;;;;51.93;47.90;;;3.50;99.90;;;;;;5077972;28;20383;-76
2021/12/01 03:04:20;;;;;;;51.73;47.63;;;3.50;99.90;;;;;;5081675;28;20761;-75
2021/12/01 03:07:10;;;;;;;53.73;49.53;;;3.50;99.90;;;;;;5079798;28;20232;-75
2021/12/01 03:09:58;;;;;;;52.97;48.93;;;3.50;99.90;;;;;;5077648;28;20225;-75
2021/12/01 03:12:49;;;;;;;54.30;50.20;;;3.50;99.90;;;;;;5080592;28;20324;-76
2021/12/01 03:15:37;;;;;;;55.37;51.07;;;3.40;99.90;;;;;;5080248;28;20227;-74
2021/12/01 03:18:26;;;;;;;54.77;50.40;;;3.50;99.90;;;;;;5081771;28;20700;-74
2021/12/01 03:21:15;;;;;;;53.67;49.47;;;3.50;99.90;;;;;;5078414;27;20423;-74
2021/12/01 03:24:05;;;;;;;53.17;49.00;;;3.50;99.90;;;;;;5078903;28;20224;-74
2021/12/01 03:26:54;;;;;;;53.63;49.43;;;3.40;99.90;;;;;;5075652;28;20308;-74
2021/12/01 03:29:46;;;;;;;54.03;49.80;;;3.40;99.90;;;;;;5079627;28;20221;-75
2021/12/01 03:32:35;;;;;;;52.80;48.80;;;3.40;99.90;;;;;;5080302;28;20588;-74
2021/12/01 03:35:23;;;;;;;51.57;47.77;;;3.30;99.90;;;;;;5080810;28;20230;-74
2021/12/01 03:38:12;;;;;;;52.07;48.10;;;3.30;99.90;;;;;;5077916;28;20340;-73
2021/12/01 03:41:01;;;;;;;51.63;47.77;;;3.40;99.90;;;;;;5079943;28;20254;-74
2021/12/01 03:43:50;;;;;;;51.10;47.20;;;3.30;99.90;;;;;;5078667;28;20284;-72
2021/12/01 03:46:40;;;;;;;53.13;48.83;;;3.30;99.90;;;;;;5088474;28;20226;-71
2021/12/01 03:49:29;;;;;;;50.40;46.47;;;3.20;99.90;;;;;;5078165;28;20607;-73
2021/12/01 03:52:18;;;;;;;53.30;49.20;;;3.10;99.90;;;;;;5082328;27;20212;-73
2021/12/01 03:55:09;;;;;;;50.57;46.87;;;3.00;99.90;;;;;;5081926;28;20252;-75
2021/12/01 03:57:57;;;;;;;49.27;45.57;;;2.90;99.90;;;;;;5081355;28;20223;-73
2021/12/01 04:00:47;;;;;;;52.13;48.17;;;2.90;99.90;;;;;;5083886;28;20334;-75
2021/12/01 04:03:37;;;;;;;52.30;48.43;;;2.90;99.90;;;;;;5086154;28;20619;-74
2021/12/01 04:06:26;;;;;;;50.57;46.80;;;2.90;99.90;;;;;;5080627;28;20288;-75
2021/12/01 04:09:15;;;;;;;53.07;49.00;;;2.90;99.90;;;;;;5113110;27;20225;-73
2021/12/01 04:12:05;;;;;;;52.90;48.90;;;2.90;99.90;;;;;;5081005;28;20231;-73
2021/12/01 04:14:54;;;;;;;50.37;46.47;;;2.80;99.90;;;;;;5080011;28;20224;-73
2021/12/01 04:17:44;;;;;;;51.40;47.60;;;2.70;99.90;;;;;;5082749;27;20217;-73
2021/12/01 04:20:34;;;;;;;51.97;48.00;;;2.70;99.90;;;;;;5084543;28;20809;-74
2021/12/01 04:23:23;;;;;;;53.33;49.37;;;2.70;99.90;;;;;;5082097;28;20347;-73
2021/12/01 04:26:16;;;;;;;51.30;47.40;;;2.80;99.90;;;;;;5082952;28;20242;-73
2021/12/01 04:29:06;;;;;;;50.80;46.93;;;2.80;99.90;;;;;;5081810;28;20307;-72
2021/12/01 04:31:54;;;;;;;52.47;48.37;;;2.70;99.90;;;;;;5083411;28;20230;-73
2021/12/01 04:34:43;;;;;;;52.00;48.00;;;2.80;99.90;;;;;;5086011;28;20227;-73
2021/12/01 04:37:34;;;;;;;51.47;47.70;;;2.70;99.90;;;;;;5086515;28;20226;-71
2021/12/01 04:40:24;;;;;;;51.17;47.27;;;2.70;99.90;;;;;;5086667;28;20219;-71
2021/12/01 04:43:12;;;;;;;48.60;44.90;;;2.70;99.90;;;;;;5085662;28;20220;-72
2021/12/01 04:46:02;;;;;;;54.40;50.30;;;2.50;99.90;;;;;;5081773;27;20741;-73
2021/12/01 04:48:51;;;;;;;52.63;48.57;;;2.60;99.90;;;;;;5081530;28;20232;-73
2021/12/01 04:51:44;;;;;;;52.07;48.20;;;2.50;99.90;;;;;;5084237;28;20276;-72
2021/12/01 04:54:35;;;;;;;52.20;48.20;;;2.50;99.90;;;;;;5080085;28;20376;-74
2021/12/01 04:57:23;;;;;;;51.70;47.80;;;2.50;99.90;;;;;;5079735;28;20219;-73
2021/12/01 05:00:17;;;;;;;53.50;49.20;;;2.50;99.90;;;;;;5079332;28;20267;-74
2021/12/01 05:03:06;;;;;;;51.40;47.70;;;2.50;99.90;;;;;;5080705;27;20221;-73
2021/12/01 05:06:16;;;;;;;49.60;46.00;;;2.40;99.90;;;;;;5082099;28;20564;-74
2021/12/01 05:09:05;;;;;;;50.17;46.40;;;2.30;99.90;;;;;;5083294;28;20219;-73
2021/12/01 05:11:55;;;;;;;51.83;48.03;;;2.30;99.90;;;;;;5078263;28;20215;-73
2021/12/01 05:14:44;;;;;;;51.90;48.00;;;2.30;99.90;;;;;;5085186;28;20308;-73
2021/12/01 05:17:33;;;;;;;53.87;49.80;;;2.20;99.90;;;;;;5079491;28;20226;-73
2021/12/01 05:20:22;;;;;;;51.97;48.03;;;2.20;99.90;;;;;;5082462;28;20223;-73
2021/12/01 05:23:15;;;;;;;52.00;48.00;;;2.20;99.90;;;;;;5078402;28;20676;-74
2021/12/01 05:26:06;;;;;;;52.23;48.40;;;2.20;99.90;;;;;;5084295;28;20695;-73
2021/12/01 05:28:57;;;;;;;51.87;48.07;;;2.20;99.90;;;;;;5076720;28;20591;-72
2021/12/01 05:31:45;;;;;;;53.53;49.37;;;2.10;99.90;;;;;;5105631;27;20228;-73
2021/12/01 05:34:34;;;;;;;53.40;49.40;;;2.10;99.90;;;;;;5092725;27;20324;-74
2021/12/01 05:37:23;;;;;;;50.57;46.57;;;2.10;99.90;;;;;;5078775;28;20231;-75
2021/12/01 05:40:12;;;;;;;51.60;47.50;;;2.10;99.90;;;;;;5082605;28;20234;-72
2021/12/01 05:43:01;;;;;;;53.10;49.10;;;2.10;99.90;;;;;;5077569;28;20220;-74
2021/12/01 05:45:52;;;;;;;51.10;47.10;;;2.10;99.90;;;;;;5082077;28;20238;-74
2021/12/01 05:48:40;;;;;;;51.30;47.20;;;2.10;99.90;;;;;;5079337;28;20910;-74
2021/12/01 05:51:29;;;;;;;53.43;49.03;;;2.00;99.90;;;;;;5078238;28;20234;-75
2021/12/01 05:54:18;;;;;;;52.83;48.63;;;2.00;99.90;;;;;;5079695;28;20219;-77
2021/12/01 05:57:07;;;;;;;53.93;49.73;;;2.10;99.90;;;;;;5076353;28;20230;-74
2021/12/01 05:59:56;;;;;;;53.33;49.10;;;2.10;99.90;;;;;;5091698;28;20754;-74
2021/12/01 06:02:49;;;;;;;50.30;46.30;;;2.20;99.90;;;;;;5080452;28;20569;-75
2021/12/01 06:05:38;;;;;;;53.70;49.37;;;2.10;99.90;;;;;;5084509;28;20216;-73
2021/12/01 06:08:27;;;;;;;53.27;49.07;;;2.20;99.90;;;;;;5081915;28;20223;-74
2021/12/01 06:11:16;;;;;;;52.73;48.43;;;2.30;99.90;;;;;;5083222;28;20725;-74
2021/12/01 06:14:05;;;;;;;53.77;49.43;;;2.30;99.90;;;;;;5076341;28;20242;-75
2021/12/01 06:16:54;;;;;;;52.37;48.17;;;2.30;99.90;;;;;;5080880;28;20223;-75
2021/12/01 06:19:44;;;;;;;54.47;50.17;;;2.30;99.90;;;;;;5082509;28;20231;-74
2021/12/01 06:22:33;;;;;;;53.93;49.53;;;2.20;99.90;;;;;;5079602;27;20219;-79
2021/12/01 06:25:23;;;;;;;54.63;50.33;;;2.30;99.90;;;;;;5082662;28;20246;-78
2021/12/01 06:28:14;;;;;;;54.10;49.53;;;2.20;99.90;;;;;;5081638;28;20237;-77
2021/12/01 06:31:03;;;;;;;55.73;51.13;;;2.30;99.90;;;;;;5079777;28;20227;-77
2021/12/01 06:33:51;;;;;;;53.20;48.87;;;2.30;99.90;;;;;;5078124;28;20223;-78
2021/12/01 06:36:42;;;;;;;53.90;49.50;;;2.40;99.90;;;;;;5082255;28;20227;-77
2021/12/01 06:39:35;;;;;;;53.50;49.30;;;2.40;99.90;;;;;;5083446;28;20667;-78
2021/12/01 06:42:25;;;;;;;53.43;49.17;;;2.50;99.90;;;;;;5082458;28;20737;-78
2021/12/01 06:45:16;;;;;;;53.77;49.40;;;2.60;99.90;;;;;;5083270;28;20212;-78
2021/12/01 06:48:05;;;;;;;55.27;50.77;;;2.60;99.90;;;;;;5084543;28;20554;-76
2021/12/01 06:50:54;;;;;;;55.80;51.30;;;2.70;99.90;;;;;;5091001;28;20310;-74
2021/12/01 06:53:44;;;;;;;54.63;50.07;;;2.70;99.90;;;;;;5084002;28;20220;-74
2021/12/01 06:56:33;;;;;;;55.93;51.40;;;2.70;99.90;;;;;;5079234;28;20231;-75
2021/12/01 06:59:22;;;;;;;54.20;49.47;;;2.70;99.90;;;;;;5081940;28;20227;-75
2021/12/01 07:02:11;;;;;;;58.17;53.00;;;2.70;99.90;;;;;;5080566;28;20302;-74
2021/12/01 07:05:00;;;;;;;56.90;51.87;;;2.70;99.90;;;;;;5081463;28;20212;-74
2021/12/01 07:07:49;;;;;;;59.53;54.30;;;2.80;99.90;;;;;;5077990;28;20225;-75
2021/12/01 07:10:39;;;;;;;58.37;53.37;;;2.70;99.90;;;;;;5077757;28;20326;-73
2021/12/01 07:13:31;;;;;;;57.13;52.30;;;2.80;99.90;;;;;;5074818;28;20220;-72
2021/12/01 07:16:20;;;;;;;59.37;54.00;;;2.80;99.90;;;;;;5082442;28;20368;-69
2021/12/01 07:19:09;;;;;;;57.10;52.23;;;2.90;99.90;;;;;;5077919;28;20756;-70
2021/12/01 07:21:58;;;;;;;59.23;54.10;;;3.00;99.90;;;;;;5088858;28;20316;-70
2021/12/01 07:24:47;;;;;;;55.77;51.03;;;3.00;99.90;;;;;;5082899;28;20251;-72
2021/12/01 07:27:37;;;;;;;53.90;49.50;;;3.00;99.90;;;;;;5086468;28;20226;-71
2021/12/01 07:30:26;;;;;;;55.53;50.80;;;3.00;99.90;;;;;;5089725;28;20231;-72
2021/12/01 07:33:15;;;;;;;58.63;53.53;;;2.90;99.90;;;;;;5080417;28;20262;-70
2021/12/01 07:36:05;;;;;;;55.77;51.03;;;3.10;99.90;;;;;;5084802;28;20222;-73
2021/12/01 07:38:56;;;;;;;56.73;51.93;;;3.10;99.90;;;;;;5085477;28;20247;-71
2021/12/01 07:41:45;;;;;;;58.70;53.57;;;3.10;99.90;;;;;;5086100;28;20901;-70
2021/12/01 07:44:36;;;;;;;58.70;53.73;;;3.20;99.90;;;;;;5081467;28;20371;-73
2021/12/01 07:47:24;;;;;;;58.47;53.30;;;3.30;99.90;;;;;;5112299;27;20253;-70
2021/12/01 07:50:13;;;;;;;55.97;51.07;;;3.30;99.90;;;;;;5077924;28;20361;-70
2021/12/01 07:53:02;;;;;;;59.20;54.07;;;3.40;99.90;;;;;;5092893;28;20291;-66
2021/12/01 07:55:51;;;;;;;60.33;55.33;;;3.30;99.90;;;;;;5087738;28;20273;-68
2021/12/01 07:58:40;;;;;;;57.93;53.13;;;3.40;99.90;;;;;;5088747;28;20224;-68
2021/12/01 08:01:30;;;;;;;58.87;53.80;;;3.40;99.90;;;;;;5084287;28;20219;-70
2021/12/01 08:04:23;;;;;;;56.30;51.50;;;3.50;99.90;;;;;;5084396;28;20233;-70
2021/12/01 08:07:13;;;;;;;56.97;52.13;;;3.50;99.90;;;;;;5081083;28;20333;-72
2021/12/01 08:10:02;;;;;;;57.23;52.23;;;3.50;99.90;;;;;;5085941;28;20231;-71
2021/12/01 08:12:51;;;;;;;58.63;53.57;;;3.50;99.90;;;;;;5084504;28;20239;-71
2021/12/01 08:15:41;;;;;;;58.20;53.03;;;3.40;99.90;;;;;;5085148;28;20217;-70
2021/12/01 08:18:31;;;;;;;58.87;53.87;;;3.50;99.90;;;;;;5082724;28;20308;-72
2021/12/01 08:21:20;;;;;;;59.23;53.87;;;3.60;99.90;;;;;;5085274;28;20212;-70
2021/12/01 08:24:27;;;;;;;57.23;52.20;;;3.60;99.90;;;;;;5082625;28;20219;-72
2021/12/01 08:27:16;;;;;;;59.33;54.23;;;3.60;99.90;;;;;;5085232;28;21423;-72
2021/12/01 08:30:06;;;;;;;58.03;52.87;;;3.60;99.90;;;;;;5081179;28;20227;-72
2021/12/01 08:32:55;;;;;;;57.83;52.83;;;3.70;99.90;;;;;;5086724;28;20219;-70
2021/12/01 08:35:45;;;;;;;59.57;54.43;;;3.60;99.90;;;;;;5093856;27;20229;-71
2021/12/01 08:38:34;;;;;;;60.60;55.50;;;3.60;99.90;;;;;;5081414;28;20225;-71
2021/12/01 08:41:23;;;;;;;59.47;54.33;;;3.60;99.90;;;;;;5083605;28;20236;-69
2021/12/01 08:44:13;;;;;;;60.30;54.90;;;3.60;99.90;;;;;;5083773;28;20224;-71
2021/12/01 08:47:02;;;;;;;61.67;56.43;;;3.60;99.90;;;;;;5083835;28;20220;-72
2021/12/01 08:49:51;;;;;;;60.40;55.20;;;3.50;99.90;;;;;;5085501;28;20218;-73
2021/12/01 08:52:41;;;;;;;62.07;56.87;;;3.50;99.90;;;;;;5084125;28;20221;-70
2021/12/01 08:55:30;;;;;;;62.00;56.17;;;3.60;99.90;;;;;;5081709;28;20394;-71
2021/12/01 08:58:28;;;;;;;61.13;55.63;;;3.50;99.90;;;;;;5082052;28;20587;-71
2021/12/01 09:01:17;;;;;;;59.07;53.90;;;3.60;99.90;;;;;;5081418;28;20244;-73
2021/12/01 09:04:06;;;;;;;61.03;55.53;;;3.70;99.90;;;;;;5084358;28;20225;-71
2021/12/01 09:06:58;;;;;;;59.07;53.87;;;3.70;99.90;;;;;;5085617;28;20228;-72
2021/12/01 09:09:49;;;;;;;59.57;54.37;;;3.80;99.90;;;;;;5084673;28;20213;-75
2021/12/01 09:12:43;;;;;;;57.50;52.50;;;3.90;99.90;;;;;;5095411;27;20224;-72
2021/12/01 09:15:34;;;;;;;58.90;53.80;;;3.90;99.90;;;;;;5080812;28;20230;-69
2021/12/01 09:18:24;;;;;;;57.40;51.80;;;4.10;99.90;;;;;;5081210;28;20236;-72
2021/12/01 09:21:13;;;;;;;58.77;53.77;;;4.10;99.90;;;;;;5080604;28;20584;-73
2021/12/01 09:24:01;;;;;;;58.40;53.70;;;4.20;99.90;;;;;;5080835;28;20291;-71
2021/12/01 09:26:51;;;;;;;57.43;52.73;;;4.20;99.90;;;;;;5080600;28;20324;-62
2021/12/01 09:29:40;;;;;;;54.90;50.30;;;4.30;99.90;;;;;;5081125;28;20228;-68
2021/12/01 09:32:29;;;;;;;56.87;51.87;;;4.30;99.90;;;;;;5079988;28;20214;-69
2021/12/01 09:35:17;;;;;;;58.60;53.50;;;4.30;99.90;;;;;;5083481;28;20227;-68
2021/12/01 09:38:06;;;;;;;58.97;53.87;;;4.30;99.90;;;;;;5077360;28;20236;-68
2021/12/01 09:40:57;;;;;;;55.50;50.93;;;4.40;99.90;;;;;;5078693;28;20733;-67
2021/12/01 09:43:47;;;;;;;58.93;53.93;;;4.30;99.90;;;;;;5078718;28;20216;-68
2021/12/01 09:46:37;;;;;;;58.73;53.73;;;4.20;99.90;;;;;;5082943;28;20567;-66
2021/12/01 09:49:25;;;;;;;58.23;53.60;;;4.20;99.90;;;;;;5083093;28;20223;-67
2021/12/01 09:52:14;;;;;;;58.33;53.27;;;4.20;99.90;;;;;;5080365;28;20217;-65
2021/12/01 09:55:04;;;;;;;58.60;53.57;;;4.20;99.90;;;;;;5095660;28;20217;-67
2021/12/01 09:57:56;;;;;;;56.70;52.00;;;4.30;99.90;;;;;;5091365;28;20234;-66
2021/12/01 10:00:49;;;;;;;59.40;54.50;;;4.40;99.90;;;;;;5083822;28;20226;-65
2021/12/01 10:03:39;;;;;;;58.30;53.27;;;4.40;99.90;;;;;;5081168;28;20696;-64
2021/12/01 10:06:29;;;;;;;59.40;54.47;;;4.40;99.90;;;;;;5082940;27;20229;-65
2021/12/01 10:09:20;;;;;;;56.13;51.53;;;4.40;99.90;;;;;;5080185;28;20230;-66
2021/12/01 10:12:10;;;;;;;55.33;50.63;;;4.30;99.90;;;;;;5094960;28;20313;-66
2021/12/01 10:14:59;;;;;;;57.87;53.07;;;4.30;99.90;;;;;;5085029;28;20234;-68
2021/12/01 10:17:49;;;;;;;60.57;55.73;;;4.30;99.90;;;;;;5086606;28;20228;-64
2021/12/01 10:20:38;;;;;;;56.33;51.90;;;4.30;99.90;;;;;;5089522;28;20222;-62
2021/12/01 10:23:27;;;;;;;58.10;53.30;;;4.20;99.90;;;;;;5093473;28;20251;-65
2021/12/01 10:26:22;;;;;;;59.17;54.23;;;4.40;99.90;;;;;;5084287;28;20225;-68
2021/12/01 10:29:14;;;;;;;56.70;52.20;;;4.50;99.90;;;;;;5082458;28;20253;-65
2021/12/01 10:32:14;;;;;;;58.10;53.30;;;4.50;99.90;;;;;;5083427;28;20536;-65
2021/12/01 10:35:05;;;;;;;56.63;52.13;;;4.50;99.90;;;;;;5080486;28;20229;-65
2021/12/01 10:37:54;;;;;;;55.47;50.57;;;4.50;99.90;;;;;;5078538;28;20723;-65
2021/12/01 10:40:43;;;;;;;57.77;52.67;;;4.50;99.90;;;;;;5108039;27;20718;-65
2021/12/01 10:43:47;;;;;;;58.30;53.33;;;4.60;99.90;;;;;;5080595;28;20290;-65
2021/12/01 10:46:44;;;;;;;56.00;51.60;;;4.60;99.90;;;;;;5085377;28;20234;-64
2021/12/01 10:49:36;;;;;;;55.13;50.63;;;4.60;99.90;;;;;;5083771;28;20745;-66
2021/12/01 10:52:34;;;;;;;56.17;51.37;;;4.50;99.90;;;;;;5083967;28;20229;-67
2021/12/01 10:55:25;;;;;;;56.13;51.23;;;4.50;99.90;;;;;;5083265;28;20305;-67
2021/12/01 10:58:15;;;;;;;56.40;51.93;;;4.50;99.90;;;;;;5086141;28;20245;-66
2021/12/01 11:01:06;;;;;;;57.97;53.40;;;4.40;99.90;;;;;;5084402;28;20351;-65
2021/12/01 11:03:55;;;;;;;57.30;52.57;;;4.50;99.90;;;;;;5086036;28;20252;-66
2021/12/01 11:06:45;;;;;;;58.90;53.93;;;4.50;99.90;;;;;;5083160;28;20721;-65
2021/12/01 11:09:35;;;;;;;56.57;52.17;;;4.50;99.90;;;;;;5086562;28;20233;-66
2021/12/01 11:12:29;;;;;;;56.47;51.77;;;4.60;99.90;;;;;;5087463;28;20232;-67
2021/12/01 11:15:39;;;;;;;57.07;52.50;;;4.60;99.90;;;;;;5085190;28;20964;-65
2021/12/01 11:18:49;;;;;;;56.63;52.40;;;4.60;99.90;;;;;;5083646;28;20268;-66
2021/12/01 11:21:43;;;;;;;56.03;51.77;;;4.60;99.90;;;;;;5082905;28;20770;-67
2021/12/01 11:24:32;;;;;;;56.53;52.13;;;4.60;99.90;;;;;;5084632;28;20220;-67
2021/12/01 11:27:22;;;;;;;56.33;51.83;;;4.60;99.90;;;;;;5082264;28;20220;-68
2021/12/01 11:30:11;;;;;;;55.30;50.60;;;4.60;99.90;;;;;;5086928;28;20216;-65
2021/12/01 11:33:00;;;;;;;55.73;51.20;;;4.70;99.90;;;;;;5085403;28;20222;-65
2021/12/01 11:35:52;;;;;;;53.87;49.57;;;4.60;99.90;;;;;;5087132;28;20962;-66
2021/12/01 11:38:42;;;;;;;56.37;51.97;;;4.60;99.90;;;;;;5082972;28;20303;-65
2021/12/01 11:41:32;;;;;;;52.53;48.40;;;4.60;99.90;;;;;;5081625;28;20290;-67
2021/12/01 11:44:25;;;;;;;55.70;51.20;;;4.60;99.90;;;;;;5088745;28;20223;-65
2021/12/01 11:47:16;;;;;;;56.60;52.20;;;4.60;99.90;;;;;;5095311;27;20290;-66
2021/12/01 11:50:07;;;;;;;57.50;53.07;;;4.70;99.90;;;;;;5082586;28;20898;-65
2021/12/01 11:53:08;;;;;;;56.37;51.97;;;4.60;99.90;;;;;;5095739;27;20227;-69
2021/12/01 11:55:59;;;;;;;56.83;51.97;;;4.60;99.90;;;;;;5095632;28;20227;-67
2021/12/01 11:59:00;;;;;;;56.67;52.17;;;4.60;99.90;;;;;;5078986;28;20215;-67
2021/12/01 12:01:58;;;;;;;56.20;51.97;;;4.60;99.90;;;;;;5083710;28;20235;-67
2021/12/01 12:04:48;;;;;;;55.50;51.30;;;4.60;99.90;;;;;;5094611;27;20207;-67
2021/12/01 12:07:43;;;;;;;54.03;50.03;;;4.50;99.90;;;;;;5080601;28;20227;-67
2021/12/01 12:10:34;;;;;;;54.80;50.70;;;4.50;99.90;;;;;;5085751;28;20224;-67
2021/12/01 12:13:22;;;;;;;54.17;50.07;;;4.50;99.90;;;;;;5083753;28;20229;-64
2021/12/01 12:16:23;;;;;;;55.67;51.40;;;4.50;99.90;;;;;;5084207;28;20252;-67
2021/12/01 12:19:13;;;;;;;55.17;50.57;;;4.50;99.90;;;;;;5089202;28;20233;-67
2021/12/01 12:22:02;;;;;;;52.53;48.63;;;4.50;99.90;;;;;;5086787;28;20228;-66
2021/12/01 12:24:53;;;;;;;53.20;49.00;;;4.50;99.90;;;;;;5085917;28;20764;-68
2021/12/01 12:27:44;;;;;;;53.93;49.83;;;4.50;99.90;;;;;;5087846;28;20227;-69
2021/12/01 12:30:41;;;;;;;53.97;49.87;;;4.50;99.90;;;;;;5083543;28;20290;-68
2021/12/01 12:33:31;;;;;;;52.23;48.33;;;4.60;99.90;;;;;;5072296;28;20221;-66
2021/12/01 12:36:40;;;;;;;53.90;49.60;;;4.50;99.90;;;;;;5085206;28;20230;-67
2021/12/01 12:39:32;;;;;;;53.73;49.63;;;4.50;99.90;;;;;;5082749;28;20260;-67
2021/12/01 12:42:22;;;;;;;53.63;49.60;;;4.50;99.90;;;;;;5082934;28;20226;-66
2021/12/01 12:45:26;;;;;;;54.63;50.50;;;4.60;99.90;;;;;;5085250;28;20227;-67
2021/12/01 12:48:25;;;;;;;51.97;48.03;;;4.60;99.90;;;;;;5084230;28;20330;-67
2021/12/01 12:51:22;;;;;;;54.37;50.20;;;4.50;99.90;;;;;;5078618;28;20671;-68
2021/12/01 12:54:18;;;;;;;51.60;47.90;;;4.60;99.90;;;;;;5080932;28;20227;-67
2021/12/01 12:57:09;;;;;;;55.07;50.87;;;4.60;99.90;;;;;;5084302;28;20398;-68
2021/12/01 13:00:16;;;;;;;54.80;50.80;;;4.60;99.90;;;;;;5083463;28;20219;-67
2021/12/01 13:03:27;;;;;;;52.37;48.47;;;4.60;99.90;;;;;;5082503;28;20230;-67
2021/12/01 13:06:27;;;;;;;52.67;48.63;;;4.60;99.90;;;;;;5081161;28;20218;-70
2021/12/01 13:09:18;;;;;;;52.73;48.83;;;4.60;99.90;;;;;;5084217;28;20234;-68
2021/12/01 13:12:07;;;;;;;52.73;48.77;;;4.60;99.90;;;;;;5102162;27;20243;-67
2021/12/01 13:14:56;;;;;;;53.13;49.23;;;4.60;99.90;;;;;;5109264;27;20227;-69
2021/12/01 13:17:47;;;;;;;51.00;47.33;;;4.60;99.90;;;;;;5086096;28;20231;-69
2021/12/01 13:20:39;;;;;;;53.40;49.43;;;4.60;99.90;;;;;;5072443;28;20227;-70
2021/12/01 13:23:32;;;;;;;53.80;49.57;;;4.50;99.90;;;;;;5084169;28;20223;-69
2021/12/01 13:26:23;;;;;;;51.77;48.00;;;4.50;99.90;;;;;;5085507;28;20279;-70
2021/12/01 13:29:16;;;;;;;52.53;48.83;;;4.50;99.90;;;;;;5085953;28;20257;-69
2021/12/01 13:32:23;;;;;;;49.80;46.30;;;4.50;99.90;;;;;;5082391;28;20320;-70
2021/12/01 13:35:12;;;;;;;51.00;47.30;;;4.50;99.90;;;;;;5080999;28;20227;-70
2021/12/01 13:38:01;;;;;;;50.57;47.17;;;4.40;99.90;;;;;;5079657;28;20309;-69
2021/12/01 13:40:55;;;;;;;49.10;45.67;;;4.40;99.90;;;;;;5081280;28;20556;-69
2021/12/01 13:43:46;;;;;;;49.93;46.37;;;4.40;99.90;;;;;;5084665;28;20296;-70
2021/12/01 13:46:35;;;;;;;53.03;48.73;;;4.30;99.90;;;;;;5088520;28;20689;-69
2021/12/01 13:49:37;;;;;;;48.93;45.50;;;4.40;99.90;;;;;;5112064;27;20226;-68
2021/12/01 13:52:28;;;;;;;53.10;49.30;;;4.30;99.90;;;;;;5081903;28;20218;-71
2021/12/01 13:55:20;;;;;;;52.93;49.23;;;4.30;99.90;;;;;;5084959;28;20222;-71
2021/12/01 13:58:11;;;;;;;53.40;49.50;;;4.20;99.90;;;;;;5083456;28;20543;-70
2021/12/01 14:01:03;;;;;;;51.70;47.80;;;4.20;99.90;;;;;;5093138;28;20219;-69
2021/12/01 14:04:05;;;;;;;51.60;47.83;;;4.10;99.90;;;;;;5082153;28;20245;-71
2021/12/01 14:06:57;;;;;;;53.90;50.00;;;4.10;99.90;;;;;;5092341;28;20689;-70
2021/12/01 14:10:02;;;;;;;50.07;46.50;;;4.10;99.90;;;;;;5084238;28;20229;-70
2021/12/01 14:12:56;;;;;;;51.90;47.80;;;4.00;99.90;;;;;;5078455;28;20250;-71
2021/12/01 14:15:47;;;;;;;48.87;45.27;;;4.00;99.90;;;;;;5085649;28;20627;-70
2021/12/01 14:18:36;;;;;;;50.47;46.67;;;3.90;99.90;;;;;;5081548;28;20231;-69
2021/12/01 14:21:27;;;;;;;48.97;45.17;;;3.90;99.90;;;;;;5082685;28;20811;-70
2021/12/01 14:24:18;;;;;;;52.50;48.70;;;3.90;99.90;;;;;;5081918;28;20225;-67
2021/12/01 14:27:09;;;;;;;48.87;45.27;;;3.90;99.90;;;;;;5076071;28;20244;-69
2021/12/01 14:30:00;;;;;;;50.20;46.27;;;3.80;99.90;;;;;;5085898;28;20581;-66
2021/12/01 14:32:52;;;;;;;49.97;46.27;;;3.70;99.90;;;;;;5078931;28;20224;-69
2021/12/01 14:35:41;;;;;;;53.37;49.17;;;3.80;99.90;;;;;;5082719;28;20223;-69
2021/12/01 14:38:33;;;;;;;52.63;48.63;;;3.80;99.90;;;;;;5082294;28;20228;-68
2021/12/01 14:41:22;;;;;;;52.37;48.30;;;3.80;99.90;;;;;;5085604;28;20228;-70